Terminal Aerodrome Forecast
Issued by NWS

Home | Current Version | Previous Version | Text Only | Print | Product List | Glossary On
Versions: 1 2 3 4 5 6 7 8 9 10 11 12 13 14 15 16 17 18 19 20 21 22 23 24 25 26 27
000
FTUS46 KMTR 170300 AAA
TAFSFO
TAF AMD
KSFO 170300Z 1703/1806 29016KT P6SM FEW015 SCT150
     FM170400 29010KT P6SM FEW010
     FM171200 28005KT P6SM BKN010
     FM171800 28005KT P6SM SCT015
     FM172000 28015KT P6SM SKC
     FM180400 28009KT P6SM SKC=

USA.gov is the U.S. government's official web portal to all federal, state and local government web resources and services.